createdAt,value
2017-08-04T00:00:42.698Z,17
2017-08-04T00:01:45.528Z,17
2017-08-04T00:02:47.970Z,16.9
2017-08-04T00:03:50.431Z,16.9
2017-08-04T00:04:53.557Z,16.9
2017-08-04T00:05:56.032Z,16.8
2017-08-04T00:06:58.472Z,16.8
2017-08-04T00:08:00.924Z,16.7
2017-08-04T00:09:04.069Z,16.7
2017-08-04T00:10:06.885Z,16.7
2017-08-04T00:11:09.689Z,16.7
2017-08-04T00:12:12.149Z,16.7
2017-08-04T00:13:14.596Z,16.7
2017-08-04T00:14:18.068Z,16.6
2017-08-04T00:15:20.523Z,16.6
2017-08-04T00:16:23.328Z,16.6
2017-08-04T00:17:26.119Z,16.6
2017-08-04T00:18:28.929Z,16.6
2017-08-04T00:19:31.376Z,16.6
2017-08-04T00:20:33.818Z,16.5
2017-08-04T00:21:36.664Z,16.5
2017-08-04T00:22:39.792Z,16.5
2017-08-04T00:23:42.252Z,16.5
2017-08-04T00:24:45.373Z,16.5
2017-08-04T00:25:47.812Z,16.5
2017-08-04T00:26:50.603Z,16.5
2017-08-04T00:27:53.409Z,16.4
2017-08-04T00:28:55.849Z,16.4
2017-08-04T00:29:58.671Z,16.4
2017-08-04T00:31:01.134Z,16.4
2017-08-04T00:32:03.936Z,16.4
2017-08-04T00:33:07.058Z,16.4
2017-08-04T00:34:09.527Z,16.4
2017-08-04T00:35:12.314Z,16.4
2017-08-04T00:36:14.775Z,16.4
2017-08-04T00:37:17.213Z,16.4
2017-08-04T00:38:20.345Z,16.4
2017-08-04T00:39:22.797Z,16.4
2017-08-04T00:40:25.253Z,16.4
2017-08-04T00:41:28.375Z,16.4
2017-08-04T00:42:31.166Z,16.4
2017-08-04T00:43:33.954Z,16.4
2017-08-04T00:44:36.409Z,16.4
2017-08-04T00:45:38.844Z,16.4
2017-08-04T00:46:41.637Z,16.5
2017-08-04T00:47:44.427Z,16.4
2017-08-04T00:48:46.872Z,16.4
2017-08-04T00:49:49.659Z,16.4
2017-08-04T00:50:52.112Z,16.4
2017-08-04T00:51:54.573Z,16.4
2017-08-04T00:52:57.378Z,16.5
2017-08-04T00:54:00.161Z,16.5
2017-08-04T00:55:03.646Z,16.4
2017-08-04T00:56:06.429Z,16.5
2017-08-04T00:57:08.886Z,16.5
2017-08-04T00:58:11.338Z,16.5
2017-08-04T00:59:13.796Z,16.5
2017-08-04T01:00:16.250Z,16.5
2017-08-04T01:01:19.048Z,16.5
2017-08-04T01:02:21.837Z,16.4
2017-08-04T01:03:24.946Z,16.5
2017-08-04T01:04:27.396Z,16.4
2017-08-04T01:05:30.192Z,16.4
2017-08-04T01:06:32.673Z,16.4
2017-08-04T01:07:35.150Z,16.4
2017-08-04T01:08:37.600Z,16.4
2017-08-04T01:09:40.394Z,16.4
2017-08-04T01:10:43.870Z,16.4
2017-08-04T01:11:46.661Z,16.4
2017-08-04T01:12:49.107Z,16.3
2017-08-04T01:13:51.565Z,16.4
2017-08-04T01:14:54.013Z,16.4
2017-08-04T01:15:57.146Z,16.3
2017-08-04T01:16:59.940Z,16.3
2017-08-04T01:18:03.067Z,16.3
2017-08-04T01:19:06.186Z,16.3
2017-08-04T01:20:08.969Z,16.3
2017-08-04T01:21:11.432Z,16.3
2017-08-04T01:22:14.231Z,16.3
2017-08-04T01:23:16.684Z,16.2
2017-08-04T01:24:19.130Z,16.2
2017-08-04T01:25:21.571Z,16.2
2017-08-04T01:26:24.022Z,16.2
2017-08-04T01:27:26.487Z,16.2
2017-08-04T01:28:28.936Z,16.1
2017-08-04T01:29:31.394Z,16.2
2017-08-04T01:30:33.845Z,16.2
2017-08-04T01:31:36.300Z,16.2
2017-08-04T01:32:38.752Z,16.2
2017-08-04T01:33:41.202Z,16.2
2017-08-04T01:34:43.669Z,16.1
2017-08-04T01:35:46.126Z,16.2
2017-08-04T01:36:48.592Z,16.2
2017-08-04T01:37:51.376Z,16.1
2017-08-04T01:38:53.832Z,16.1
2017-08-04T01:39:56.624Z,16.1
2017-08-04T01:40:59.074Z,16.1
2017-08-04T01:42:01.537Z,16.1
2017-08-04T01:43:04.352Z,16
2017-08-04T01:44:07.145Z,16
2017-08-04T01:45:09.934Z,16
2017-08-04T01:46:12.736Z,16
2017-08-04T01:47:15.525Z,16
2017-08-04T01:48:18.319Z,15.9
2017-08-04T01:49:21.446Z,15.9
2017-08-04T01:50:23.894Z,15.9
2017-08-04T01:51:26.345Z,15.9
2017-08-04T01:52:28.801Z,15.8
2017-08-04T01:53:31.572Z,15.8
2017-08-04T01:54:34.362Z,15.8
2017-08-04T01:55:37.164Z,15.8
2017-08-04T01:56:39.951Z,15.8
2017-08-04T01:57:42.742Z,15.7
2017-08-04T01:58:46.225Z,15.7
2017-08-04T01:59:49.069Z,15.7
2017-08-04T02:00:51.545Z,15.7
2017-08-04T02:01:53.994Z,15.7
2017-08-04T02:02:56.469Z,15.7
2017-08-04T02:03:58.927Z,15.6
2017-08-04T02:05:01.715Z,15.6
2017-08-04T02:06:05.527Z,15.6
2017-08-04T02:07:07.977Z,15.6
2017-08-04T02:08:10.748Z,15.6
2017-08-04T02:09:14.557Z,15.6
2017-08-04T02:10:17.362Z,15.6
2017-08-04T02:11:19.816Z,15.6
2017-08-04T02:12:22.609Z,15.6
2017-08-04T02:13:25.058Z,15.6
2017-08-04T02:14:27.852Z,15.6
2017-08-04T02:15:30.983Z,15.6
2017-08-04T02:16:33.422Z,15.6
2017-08-04T02:17:36.255Z,15.6
2017-08-04T02:18:39.045Z,15.6
2017-08-04T02:19:41.522Z,15.6
2017-08-04T02:20:44.321Z,15.6
2017-08-04T02:21:46.773Z,15.6
2017-08-04T02:22:49.902Z,15.6
2017-08-04T02:23:52.692Z,15.6
2017-08-04T02:24:55.151Z,15.6
2017-08-04T02:25:57.608Z,15.5
2017-08-04T02:27:00.060Z,15.5
2017-08-04T02:28:02.843Z,15.5
2017-08-04T02:29:05.289Z,15.5
2017-08-04T02:30:07.738Z,15.5
2017-08-04T02:31:10.219Z,15.5
2017-08-04T02:32:12.677Z,15.5
2017-08-04T02:33:15.133Z,15.5
2017-08-04T02:34:17.596Z,15.4
2017-08-04T02:35:20.055Z,15.4
2017-08-04T02:36:22.841Z,15.4
2017-08-04T02:37:25.288Z,15.4
2017-08-04T02:38:28.085Z,15.4
2017-08-04T02:39:30.541Z,15.4
2017-08-04T02:40:33.338Z,15.4
2017-08-04T02:41:35.782Z,15.3
2017-08-04T02:42:38.589Z,15.3
2017-08-04T02:43:41.376Z,15.3
2017-08-04T02:44:44.861Z,15.3
2017-08-04T02:45:47.996Z,15.3
2017-08-04T02:46:50.783Z,15.3
2017-08-04T02:47:53.573Z,15.3
2017-08-04T02:48:56.708Z,15.3
2017-08-04T02:49:59.157Z,15.3
2017-08-04T02:51:01.639Z,15.3
2017-08-04T02:52:05.145Z,15.4
2017-08-04T02:53:08.275Z,15.4
2017-08-04T02:54:11.070Z,15.3
2017-08-04T02:55:13.854Z,15.3
2017-08-04T02:56:16.305Z,15.3
2017-08-04T02:57:19.109Z,15.3
2017-08-04T02:58:21.540Z,15.4
2017-08-04T02:59:24.005Z,15.3
2017-08-04T03:00:26.806Z,15.4
2017-08-04T03:01:29.940Z,15.4
2017-08-04T03:02:32.393Z,15.4
2017-08-04T03:03:34.850Z,15.4
2017-08-04T03:04:37.636Z,15.4
2017-08-04T03:05:40.767Z,15.4
2017-08-04T03:06:43.211Z,15.5
2017-08-04T03:07:45.648Z,15.5
2017-08-04T03:08:48.104Z,15.5
2017-08-04T03:09:50.893Z,15.5
2017-08-04T03:10:54.013Z,15.5
2017-08-04T03:11:56.455Z,15.5
2017-08-04T03:12:58.910Z,15.5
2017-08-04T03:14:01.350Z,15.6
2017-08-04T03:15:04.483Z,15.6
2017-08-04T03:16:06.950Z,15.6
2017-08-04T03:17:09.389Z,15.6
2017-08-04T03:18:11.852Z,15.7
2017-08-04T03:19:14.298Z,15.7
2017-08-04T03:20:16.748Z,15.7
2017-08-04T03:21:19.874Z,15.7
2017-08-04T03:22:22.653Z,15.7
2017-08-04T03:23:25.100Z,15.7
2017-08-04T03:24:27.903Z,15.7
2017-08-04T03:25:30.358Z,15.7
2017-08-04T03:26:32.814Z,15.8
2017-08-04T03:27:35.627Z,15.8
2017-08-04T03:28:38.763Z,15.8
2017-08-04T03:29:41.552Z,15.8
2017-08-04T03:30:44.013Z,15.8
2017-08-04T03:31:47.139Z,15.8
2017-08-04T03:32:50.275Z,15.8
2017-08-04T03:33:52.734Z,15.8
2017-08-04T03:34:55.517Z,15.9
2017-08-04T03:35:57.962Z,15.9
2017-08-04T03:37:01.089Z,15.9
2017-08-04T03:38:04.213Z,15.9
2017-08-04T03:39:06.676Z,15.9
2017-08-04T03:40:09.461Z,15.9
2017-08-04T03:41:12.247Z,15.9
2017-08-04T03:42:14.713Z,15.9
2017-08-04T03:43:17.175Z,15.9
2017-08-04T03:44:20.652Z,16
2017-08-04T03:45:23.103Z,16
2017-08-04T03:46:25.886Z,16
2017-08-04T03:47:28.688Z,16
2017-08-04T03:48:31.121Z,16
2017-08-04T03:49:33.917Z,16
2017-08-04T03:50:36.357Z,16
2017-08-04T03:51:38.810Z,16
2017-08-04T03:52:41.258Z,16
2017-08-04T03:53:44.055Z,16
2017-08-04T03:54:46.502Z,16.1
2017-08-04T03:55:48.956Z,16.1
2017-08-04T03:56:51.738Z,16.1
2017-08-04T03:57:54.216Z,16.1
2017-08-04T03:58:56.662Z,16.1
2017-08-04T03:59:59.462Z,16.1
2017-08-04T04:01:02.250Z,16
2017-08-04T04:02:05.049Z,16.1
2017-08-04T04:03:08.521Z,16
2017-08-04T04:04:11.322Z,16
2017-08-04T04:05:13.758Z,16
2017-08-04T04:06:16.251Z,16
2017-08-04T04:07:18.704Z,16
2017-08-04T04:08:21.165Z,16
2017-08-04T04:09:23.639Z,16
2017-08-04T04:10:26.096Z,16.1
2017-08-04T04:11:28.897Z,16.1
2017-08-04T04:12:31.702Z,16.1
2017-08-04T04:13:34.818Z,16.1
2017-08-04T04:14:38.354Z,16.1
2017-08-04T04:15:40.805Z,16.1
2017-08-04T04:16:43.253Z,16.1
2017-08-04T04:17:46.044Z,16.1
2017-08-04T04:18:48.494Z,16.1
2017-08-04T04:19:51.294Z,16.1
2017-08-04T04:20:54.085Z,16.1
2017-08-04T04:21:56.525Z,16.1
2017-08-04T04:22:58.973Z,16.1
2017-08-04T04:24:02.093Z,16.1
2017-08-04T04:25:04.889Z,16.1
2017-08-04T04:26:07.325Z,16.1
2017-08-04T04:27:09.773Z,16.1
2017-08-04T04:28:12.209Z,16.1
2017-08-04T04:29:15.007Z,16.1
2017-08-04T04:30:17.456Z,16.1
2017-08-04T04:31:19.929Z,16.1
2017-08-04T04:32:22.405Z,16
2017-08-04T04:33:25.901Z,16
2017-08-04T04:34:28.684Z,16
2017-08-04T04:35:31.131Z,16
2017-08-04T04:36:33.581Z,16
2017-08-04T04:37:36.038Z,16
2017-08-04T04:38:38.497Z,16
2017-08-04T04:39:40.959Z,16
2017-08-04T04:40:43.412Z,16
2017-08-04T04:41:46.205Z,16
2017-08-04T04:42:48.656Z,16
2017-08-04T04:43:51.445Z,16
2017-08-04T04:44:54.567Z,16
2017-08-04T04:45:57.011Z,16
2017-08-04T04:46:59.796Z,16
2017-08-04T04:48:02.941Z,16
2017-08-04T04:49:05.410Z,16
2017-08-04T04:50:07.853Z,16
2017-08-04T04:51:10.996Z,16.1
2017-08-04T04:52:13.809Z,16.1
2017-08-04T04:53:16.596Z,16.1
2017-08-04T04:54:19.392Z,16.1
2017-08-04T04:55:21.838Z,16.1
2017-08-04T04:56:24.617Z,16.1
2017-08-04T04:57:27.744Z,16.1
2017-08-04T04:58:30.531Z,16.1
2017-08-04T04:59:33.314Z,16.1
2017-08-04T05:00:35.774Z,16.1
2017-08-04T05:01:38.219Z,16.1
2017-08-04T05:02:41.005Z,16.1
2017-08-04T05:03:43.489Z,16.1
2017-08-04T05:04:46.262Z,16.2
2017-08-04T05:05:49.071Z,16.2
2017-08-04T05:06:51.855Z,16.2
2017-08-04T05:07:54.316Z,16.2
2017-08-04T05:08:57.440Z,16.2
2017-08-04T05:10:00.579Z,16.2
2017-08-04T05:11:03.368Z,16.2
2017-08-04T05:12:06.150Z,16.2
2017-08-04T05:13:09.272Z,16.2
2017-08-04T05:14:11.754Z,16.3
2017-08-04T05:15:14.225Z,16.3
2017-08-04T05:16:17.020Z,16.3
2017-08-04T05:17:19.502Z,16.3
2017-08-04T05:18:21.969Z,16.3
2017-08-04T05:19:24.417Z,16.3
2017-08-04T05:20:26.872Z,16.4
2017-08-04T05:21:29.654Z,16.4
2017-08-04T05:22:32.109Z,16.5
2017-08-04T05:23:34.917Z,16.6
2017-08-04T05:24:37.374Z,16.7
2017-08-04T05:25:39.824Z,16.7
2017-08-04T05:26:42.608Z,16.7
2017-08-04T05:27:45.398Z,16.8
2017-08-04T05:28:48.201Z,16.8
2017-08-04T05:29:51.668Z,16.8
2017-08-04T05:30:54.463Z,16.9
2017-08-04T05:31:56.924Z,16.9
2017-08-04T05:33:00.054Z,17
2017-08-04T05:34:02.846Z,17
2017-08-04T05:35:05.316Z,17
2017-08-04T05:36:07.778Z,17
2017-08-04T05:37:10.227Z,17
2017-08-04T05:38:12.704Z,17
2017-08-04T05:39:15.520Z,17
2017-08-04T05:40:17.963Z,17
2017-08-04T05:41:20.753Z,17
2017-08-04T05:42:23.201Z,17
2017-08-04T05:43:25.645Z,17
2017-08-04T05:44:28.434Z,17
2017-08-04T05:45:30.896Z,17
2017-08-04T05:46:33.679Z,17
2017-08-04T05:47:36.469Z,17
2017-08-04T05:48:38.925Z,17.1
2017-08-04T05:49:41.734Z,17.1
2017-08-04T05:50:44.214Z,17.1
2017-08-04T05:51:46.724Z,17.1
2017-08-04T05:52:49.511Z,17.2
2017-08-04T05:53:51.965Z,17.3
2017-08-04T05:54:54.770Z,17.3
2017-08-04T05:55:57.215Z,17.4
2017-08-04T05:57:00.003Z,17.4
2017-08-04T05:58:02.458Z,17.4
2017-08-04T05:59:05.943Z,17.4
2017-08-04T06:00:08.408Z,17.5
2017-08-04T06:01:11.562Z,17.5
2017-08-04T06:02:14.353Z,17.5
2017-08-04T06:03:17.142Z,17.5
2017-08-04T06:04:19.585Z,17.5
2017-08-04T06:05:22.036Z,17.5
2017-08-04T06:06:24.493Z,17.6
2017-08-04T06:07:26.940Z,17.6
2017-08-04T06:08:29.386Z,17.5
2017-08-04T06:09:31.899Z,17.6
2017-08-04T06:10:34.688Z,17.6
2017-08-04T06:11:37.138Z,17.7
2017-08-04T06:12:39.596Z,17.7
2017-08-04T06:13:42.409Z,17.8
2017-08-04T06:14:44.864Z,17.9
2017-08-04T06:15:47.318Z,17.9
2017-08-04T06:16:50.109Z,18
2017-08-04T06:17:52.561Z,18
2017-08-04T06:18:55.354Z,18
2017-08-04T06:19:57.813Z,18
2017-08-04T06:21:00.248Z,18
2017-08-04T06:22:03.399Z,18
2017-08-04T06:23:06.892Z,18
2017-08-04T06:24:09.697Z,18
2017-08-04T06:25:12.168Z,18
2017-08-04T06:26:14.953Z,18
2017-08-04T06:27:17.759Z,18
2017-08-04T06:28:20.568Z,18
2017-08-04T06:29:23.017Z,18
2017-08-04T06:30:25.472Z,18.1
2017-08-04T06:31:27.920Z,18.1
2017-08-04T06:32:30.374Z,18.2
2017-08-04T06:33:32.830Z,18.3
2017-08-04T06:34:35.618Z,18.2
2017-08-04T06:35:38.078Z,18.3
2017-08-04T06:36:40.531Z,18.3
2017-08-04T06:37:42.990Z,18.2
2017-08-04T06:38:45.447Z,18.3
2017-08-04T06:39:47.897Z,18.2
2017-08-04T06:40:50.350Z,18.2
2017-08-04T06:41:53.137Z,18.2
2017-08-04T06:42:55.584Z,18.3
2017-08-04T06:43:58.047Z,18.3
2017-08-04T06:45:00.524Z,18.2
2017-08-04T06:46:02.972Z,18.2
2017-08-04T06:47:05.444Z,18.3
2017-08-04T06:48:07.896Z,18.2
2017-08-04T06:49:11.373Z,18.3
2017-08-04T06:50:13.833Z,18.4
2017-08-04T06:51:16.299Z,18.4
2017-08-04T06:52:18.777Z,18.4
2017-08-04T06:53:22.256Z,18.5
2017-08-04T06:54:25.403Z,18.5
2017-08-04T06:55:27.858Z,18.5
2017-08-04T06:56:30.312Z,18.4
2017-08-04T06:57:33.096Z,18.4
2017-08-04T06:58:35.545Z,18.3
2017-08-04T06:59:38.010Z,18.3
2017-08-04T07:00:40.805Z,18.3
2017-08-04T07:01:43.606Z,18.3
2017-08-04T07:02:46.052Z,18.3
2017-08-04T07:03:48.502Z,18.4
2017-08-04T07:04:51.304Z,18.4
2017-08-04T07:05:53.770Z,18.4
2017-08-04T07:06:56.246Z,18.4
2017-08-04T07:07:58.709Z,18.4
2017-08-04T07:09:01.178Z,18.4
2017-08-04T07:10:03.964Z,18.5
2017-08-04T07:11:06.792Z,18.4
2017-08-04T07:12:09.255Z,18.5
2017-08-04T07:13:11.714Z,18.5
2017-08-04T07:14:14.514Z,18.5
2017-08-04T07:15:16.978Z,18.5
2017-08-04T07:16:19.778Z,18.6
2017-08-04T07:17:22.249Z,18.6
2017-08-04T07:18:24.692Z,18.5
2017-08-04T07:19:27.150Z,18.5
2017-08-04T07:20:29.948Z,18.5
2017-08-04T07:21:32.412Z,18.5
2017-08-04T07:22:34.873Z,18.5
2017-08-04T07:23:37.341Z,18.5
2017-08-04T07:24:39.790Z,18.5
2017-08-04T07:25:42.602Z,18.5
2017-08-04T07:26:45.411Z,18.6
2017-08-04T07:27:47.866Z,18.6
2017-08-04T07:28:50.317Z,18.7
2017-08-04T07:29:53.109Z,18.7
2017-08-04T07:30:55.561Z,18.8
2017-08-04T07:31:58.359Z,18.8
2017-08-04T07:33:00.812Z,18.8
2017-08-04T07:34:03.606Z,18.9
2017-08-04T07:35:06.753Z,18.9
2017-08-04T07:36:09.214Z,18.9
2017-08-04T07:37:11.672Z,18.9
2017-08-04T07:38:14.458Z,19
2017-08-04T07:39:16.912Z,19.1
2017-08-04T07:40:19.364Z,19.1
2017-08-04T07:41:21.812Z,19.3
2017-08-04T07:42:24.282Z,19.3
2017-08-04T07:43:26.745Z,19.4
2017-08-04T07:44:29.188Z,19.3
2017-08-04T07:45:31.651Z,19.2
2017-08-04T07:46:34.108Z,19.1
2017-08-04T07:47:36.561Z,19.1
2017-08-04T07:48:39.351Z,19.1
2017-08-04T07:49:41.796Z,19.1
2017-08-04T07:50:44.931Z,19.1
2017-08-04T07:51:47.739Z,19.1
2017-08-04T07:52:50.868Z,19.1
2017-08-04T07:53:53.306Z,19
2017-08-04T07:54:55.765Z,19
2017-08-04T07:55:58.557Z,19
2017-08-04T07:57:01.015Z,19
2017-08-04T07:58:04.161Z,19
2017-08-04T07:59:06.611Z,19
2017-08-04T08:00:09.445Z,19
2017-08-04T08:01:11.917Z,19
2017-08-04T08:02:14.376Z,19.2
2017-08-04T08:03:17.171Z,19.3
2017-08-04T08:04:19.627Z,19.4
2017-08-04T08:05:22.089Z,19.4
2017-08-04T08:06:24.553Z,19.6
2017-08-04T08:07:27.002Z,19.5
2017-08-04T08:08:29.442Z,19.5
2017-08-04T08:09:32.258Z,19.6
2017-08-04T08:10:35.077Z,19.6
2017-08-04T08:11:37.542Z,19.5
2017-08-04T08:12:40.007Z,19.5
2017-08-04T08:13:42.472Z,19.5
2017-08-04T08:14:44.937Z,19.5
2017-08-04T08:15:47.745Z,19.5
2017-08-04T08:16:50.202Z,19.4
2017-08-04T08:17:52.637Z,19.4
2017-08-04T08:18:55.090Z,19.4
2017-08-04T08:19:57.545Z,19.4
2017-08-04T08:20:59.995Z,19.4
2017-08-04T08:22:02.453Z,19.4
2017-08-04T08:23:05.248Z,19.4
2017-08-04T08:24:07.697Z,19.5
2017-08-04T08:25:10.206Z,19.4
2017-08-04T08:26:12.671Z,19.4
2017-08-04T08:27:15.155Z,19.4
2017-08-04T08:28:18.264Z,19.5
2017-08-04T08:29:21.418Z,19.5
2017-08-04T08:30:24.218Z,19.5
2017-08-04T08:31:26.697Z,19.5
2017-08-04T08:32:29.141Z,19.4
2017-08-04T08:33:31.600Z,19.5
2017-08-04T08:34:34.393Z,19.6
2017-08-04T08:35:36.837Z,19.6
2017-08-04T08:36:39.640Z,19.7
2017-08-04T08:37:42.093Z,19.7
2017-08-04T08:38:44.550Z,19.8
2017-08-04T08:39:47.004Z,19.7
2017-08-04T08:40:49.458Z,19.7
2017-08-04T08:41:51.933Z,19.8
2017-08-04T08:42:54.382Z,19.8
2017-08-04T08:43:56.842Z,19.9
2017-08-04T08:44:59.628Z,19.8
2017-08-04T08:46:02.087Z,19.9
2017-08-04T08:47:04.887Z,19.9
2017-08-04T08:48:07.687Z,19.8
2017-08-04T08:49:10.142Z,19.8
2017-08-04T08:50:12.942Z,19.8
2017-08-04T08:51:15.394Z,19.8
2017-08-04T08:52:17.849Z,19.8
2017-08-04T08:53:20.308Z,19.8
2017-08-04T08:54:23.101Z,19.9
2017-08-04T08:55:25.883Z,19.9
2017-08-04T08:56:28.692Z,19.8
2017-08-04T08:57:31.828Z,20
2017-08-04T08:58:34.340Z,20
2017-08-04T08:59:36.824Z,20
2017-08-04T09:00:39.279Z,20
2017-08-04T09:01:41.734Z,20.2
2017-08-04T09:02:44.528Z,20.2
2017-08-04T09:03:46.975Z,20.4
2017-08-04T09:04:49.436Z,20.4
2017-08-04T09:05:51.903Z,20.4
2017-08-04T09:06:54.371Z,20.5
2017-08-04T09:07:57.169Z,20.6
2017-08-04T09:08:59.629Z,20.6
2017-08-04T09:10:02.425Z,20.7
2017-08-04T09:11:05.229Z,20.8
2017-08-04T09:12:08.021Z,20.8
2017-08-04T09:13:10.487Z,20.8
2017-08-04T09:14:12.929Z,21
2017-08-04T09:15:15.380Z,21.1
2017-08-04T09:16:17.831Z,21.2
2017-08-04T09:17:20.275Z,21.5
2017-08-04T09:18:22.727Z,21.5
2017-08-04T09:19:25.529Z,21.5
2017-08-04T09:20:28.320Z,21.5
2017-08-04T09:21:31.136Z,21.5
2017-08-04T09:22:33.590Z,21.6
2017-08-04T09:23:36.045Z,21.5
2017-08-04T09:24:38.523Z,21.5
2017-08-04T09:25:40.977Z,21.7
2017-08-04T09:26:44.119Z,21.9
2017-08-04T09:27:46.587Z,21.9
2017-08-04T09:28:49.044Z,22.1
2017-08-04T09:29:51.844Z,22.3
2017-08-04T09:30:54.310Z,22.3
2017-08-04T09:31:57.099Z,22.5
2017-08-04T09:32:59.563Z,22.5
2017-08-04T09:34:02.379Z,22.5
2017-08-04T09:35:05.200Z,22.4
2017-08-04T09:36:08.408Z,22.3
2017-08-04T09:37:11.218Z,22.4
2017-08-04T09:38:13.708Z,22.5
2017-08-04T09:39:16.149Z,22.6
2017-08-04T09:40:18.618Z,22.5
2017-08-04T09:41:21.108Z,22.4
2017-08-04T09:42:23.904Z,22.5
2017-08-04T09:43:26.371Z,22.6
2017-08-04T09:44:28.834Z,22.8
2017-08-04T09:45:31.277Z,22.7
2017-08-04T09:46:33.770Z,22.6
2017-08-04T09:47:36.231Z,22.3
2017-08-04T09:48:39.029Z,22.3
2017-08-04T09:49:41.493Z,22
2017-08-04T09:50:43.958Z,21.5
2017-08-04T09:51:46.411Z,21.7
2017-08-04T09:52:48.891Z,21.9
2017-08-04T09:53:51.354Z,22.1
2017-08-04T09:54:54.151Z,21.9
2017-08-04T09:55:56.619Z,22
2017-08-04T09:56:59.075Z,22
2017-08-04T09:58:01.550Z,22.2
2017-08-04T09:59:04.018Z,22
2017-08-04T10:00:06.828Z,21.8
2017-08-04T10:01:09.627Z,21.6
2017-08-04T10:02:12.432Z,21.6
2017-08-04T10:03:14.895Z,21.5
2017-08-04T10:04:17.360Z,21.6
2017-08-04T10:05:20.162Z,21.7
2017-08-04T10:06:22.972Z,21.7
2017-08-04T10:07:25.419Z,21.8
2017-08-04T10:08:28.225Z,22.1
2017-08-04T10:09:31.033Z,22.2
2017-08-04T10:10:33.493Z,22.4
2017-08-04T10:11:36.303Z,22.7
2017-08-04T10:12:39.115Z,22.7
2017-08-04T10:13:41.564Z,22.7
2017-08-04T10:14:44.695Z,22.7
2017-08-04T10:15:47.161Z,22.4
2017-08-04T10:16:49.623Z,22.1
2017-08-04T10:17:52.086Z,22
2017-08-04T10:18:54.558Z,21.8
2017-08-04T10:19:57.006Z,21.6
2017-08-04T10:20:59.806Z,21.4
2017-08-04T10:22:02.617Z,21.3
2017-08-04T10:23:05.400Z,21.5
2017-08-04T10:24:07.865Z,21.5
2017-08-04T10:25:10.657Z,21.6
2017-08-04T10:26:13.135Z,21.5
2017-08-04T10:27:15.622Z,21.5
2017-08-04T10:28:18.077Z,21.5
2017-08-04T10:29:20.531Z,21.8
2017-08-04T10:30:23.001Z,21.9
2017-08-04T10:31:25.444Z,22
2017-08-04T10:32:27.909Z,22.1
2017-08-04T10:33:30.381Z,22.1
2017-08-04T10:34:32.839Z,22.4
2017-08-04T10:35:35.303Z,22.5
2017-08-04T10:36:37.762Z,22.5
2017-08-04T10:37:40.559Z,22.3
2017-08-04T10:38:43.023Z,22.1
2017-08-04T10:39:45.478Z,22
2017-08-04T10:40:47.954Z,22.3
2017-08-04T10:41:50.425Z,22.5
2017-08-04T10:42:52.890Z,22.4
2017-08-04T10:43:55.363Z,22.3
2017-08-04T10:44:57.824Z,21.9
2017-08-04T10:46:00.274Z,21.7
2017-08-04T10:47:02.745Z,21.6
2017-08-04T10:48:05.188Z,21.5
2017-08-04T10:49:07.643Z,21.5
2017-08-04T10:50:10.442Z,21.5
2017-08-04T10:51:12.912Z,21.5
2017-08-04T10:52:15.377Z,21.8
2017-08-04T10:53:17.827Z,21.8
2017-08-04T10:54:20.632Z,21.8
2017-08-04T10:55:23.113Z,21.7
2017-08-04T10:56:25.592Z,21.6
2017-08-04T10:57:28.376Z,21.8
2017-08-04T10:58:30.834Z,22.2
2017-08-04T10:59:33.311Z,22.4
2017-08-04T11:00:35.765Z,22.4
2017-08-04T11:01:38.908Z,22.4
2017-08-04T11:02:41.359Z,22.4
2017-08-04T11:03:44.493Z,22.7
2017-08-04T11:04:47.313Z,23
2017-08-04T11:05:49.782Z,23.4
2017-08-04T11:06:52.582Z,23.4
2017-08-04T11:07:55.040Z,23.1
2017-08-04T11:08:57.501Z,23.2
2017-08-04T11:09:59.972Z,23.4
2017-08-04T11:11:03.439Z,23.5
2017-08-04T11:12:06.586Z,23.4
2017-08-04T11:13:09.724Z,23.7
2017-08-04T11:14:12.205Z,23.8
2017-08-04T11:15:15.022Z,23.8
2017-08-04T11:16:17.816Z,23.8
2017-08-04T11:17:20.606Z,23.7
2017-08-04T11:18:23.073Z,23.8
2017-08-04T11:19:25.876Z,23.6
2017-08-04T11:20:28.340Z,23.5
2017-08-04T11:21:31.131Z,23.2
2017-08-04T11:22:33.605Z,23.6
2017-08-04T11:23:36.094Z,23.5
2017-08-04T11:24:39.249Z,23.7
2017-08-04T11:25:42.405Z,24
2017-08-04T11:26:44.880Z,24.2
2017-08-04T11:27:47.340Z,24.4
2017-08-04T11:28:49.831Z,24.2
2017-08-04T11:29:52.280Z,24.5
2017-08-04T11:30:55.108Z,24.6
2017-08-04T11:31:57.564Z,24.6
2017-08-04T11:33:00.021Z,24.5
2017-08-04T11:34:02.829Z,24.6
2017-08-04T11:35:05.630Z,24.8
2017-08-04T11:36:08.083Z,24.7
2017-08-04T11:37:10.579Z,24.5
2017-08-04T11:38:14.074Z,24.5
2017-08-04T11:39:16.544Z,24.4
2017-08-04T11:40:19.012Z,24.1
2017-08-04T11:41:21.476Z,24.1
2017-08-04T11:42:23.931Z,23.9
2017-08-04T11:43:26.437Z,23.8
2017-08-04T11:44:28.906Z,23.7
2017-08-04T11:45:32.094Z,23.6
2017-08-04T11:46:34.948Z,23.8
2017-08-04T11:47:37.804Z,24
2017-08-04T11:48:40.317Z,24.4
2017-08-04T11:49:43.186Z,24.5
2017-08-04T11:50:46.075Z,24.1
2017-08-04T11:51:49.283Z,24
2017-08-04T11:52:51.775Z,23.7
2017-08-04T11:53:54.324Z,23.4
2017-08-04T11:54:56.854Z,23.6
2017-08-04T11:55:59.369Z,23.8
2017-08-04T11:57:01.885Z,24
2017-08-04T11:58:05.089Z,24.1
2017-08-04T11:59:08.273Z,24.2
2017-08-04T12:00:10.804Z,24.2
2017-08-04T12:01:13.320Z,24.1
2017-08-04T12:02:15.839Z,24.3
2017-08-04T12:03:19.029Z,24.1
2017-08-04T12:04:21.540Z,24.3
2017-08-04T12:05:24.397Z,24.3
2017-08-04T12:06:26.913Z,24.4
2017-08-04T12:07:29.424Z,24.1
2017-08-04T12:08:31.931Z,23.9
2017-08-04T12:09:34.426Z,23.6
2017-08-04T12:10:36.950Z,23.4
2017-08-04T12:11:39.463Z,23.3
2017-08-04T12:12:42.319Z,23.3
2017-08-04T12:13:45.486Z,23.3
2017-08-04T12:14:48.331Z,23.2
2017-08-04T12:15:51.209Z,23.3
2017-08-04T12:16:53.722Z,23.4
2017-08-04T12:17:56.568Z,23.5
2017-08-04T12:18:59.079Z,23.6
2017-08-04T12:20:01.593Z,23.8
2017-08-04T12:21:04.458Z,24
2017-08-04T12:22:07.319Z,24.3
2017-08-04T12:23:10.170Z,24.2
2017-08-04T12:24:13.019Z,24.4
2017-08-04T12:25:15.869Z,24.4
2017-08-04T12:26:18.394Z,24.5
2017-08-04T12:27:21.253Z,24.2
2017-08-04T12:28:23.782Z,24.2
2017-08-04T12:29:26.293Z,24.4
2017-08-04T12:30:29.483Z,24.2
2017-08-04T12:31:32.361Z,24.1
2017-08-04T12:32:34.858Z,23.8
2017-08-04T12:33:37.371Z,23.9
2017-08-04T12:34:40.204Z,23.7
2017-08-04T12:35:42.714Z,23.8
2017-08-04T12:36:45.220Z,23.7
2017-08-04T12:37:47.718Z,23.5
2017-08-04T12:38:50.241Z,23.7
2017-08-04T12:39:52.755Z,23.8
2017-08-04T12:40:55.594Z,23.8
2017-08-04T12:41:58.452Z,23.9
2017-08-04T12:43:00.962Z,23.9
2017-08-04T12:44:03.786Z,23.9
2017-08-04T12:45:06.325Z,23.8
2017-08-04T12:46:09.859Z,23.8
2017-08-04T12:47:12.384Z,24
2017-08-04T12:48:15.247Z,24
2017-08-04T12:49:17.761Z,24.3
2017-08-04T12:50:20.600Z,24.6
2017-08-04T12:51:23.116Z,24.7
2017-08-04T12:52:25.940Z,24.8
2017-08-04T12:53:28.779Z,24.6
2017-08-04T12:54:31.288Z,24.5
2017-08-04T12:55:34.473Z,24.5
2017-08-04T12:56:36.974Z,24.5
2017-08-04T12:57:39.828Z,24.3
2017-08-04T12:58:42.319Z,24.3
2017-08-04T12:59:44.833Z,24.3
2017-08-04T13:00:47.476Z,24
2017-08-04T13:01:50.356Z,24
2017-08-04T13:02:52.887Z,23.9
2017-08-04T13:03:58.259Z,23.8
2017-08-04T13:05:02.994Z,23.7
2017-08-04T13:06:08.229Z,23.9
2017-08-04T13:07:14.756Z,23.8
2017-08-04T13:08:18.981Z,23.7
2017-08-04T13:09:21.495Z,23.5
2017-08-04T13:10:25.016Z,23.6
2017-08-04T13:11:27.851Z,23.4
2017-08-04T13:12:30.716Z,23.4
2017-08-04T13:13:33.224Z,23.6
2017-08-04T13:14:35.741Z,23.7
2017-08-04T13:15:38.270Z,23.6
2017-08-04T13:16:40.785Z,23.6
2017-08-04T13:17:43.352Z,23.6
2017-08-04T13:18:46.562Z,23.7
2017-08-04T13:19:49.437Z,23.9
2017-08-04T13:20:52.066Z,23.9
2017-08-04T13:21:54.939Z,23.8
2017-08-04T13:22:57.463Z,23.8
2017-08-04T13:23:59.999Z,24
2017-08-04T13:25:03.233Z,23.9
2017-08-04T13:26:05.747Z,23.8
2017-08-04T13:27:08.269Z,23.8
2017-08-04T13:28:10.799Z,23.9
2017-08-04T13:29:13.632Z,23.9
2017-08-04T13:30:16.513Z,24.1
2017-08-04T13:31:19.036Z,24.2
2017-08-04T13:32:21.573Z,24.1
2017-08-04T13:33:24.099Z,24.1
2017-08-04T13:34:26.640Z,24
2017-08-04T13:35:29.148Z,23.9
2017-08-04T13:36:31.682Z,23.8
2017-08-04T13:37:34.194Z,23.6
2017-08-04T13:38:37.047Z,23.5
2017-08-04T13:39:39.565Z,23.4
2017-08-04T13:40:42.103Z,23.3
2017-08-04T13:41:44.637Z,23.2
2017-08-04T13:42:47.483Z,23.1
2017-08-04T13:43:50.011Z,23.4
2017-08-04T13:44:52.538Z,23.7
2017-08-04T13:45:55.058Z,24
2017-08-04T13:46:57.571Z,24.1
2017-08-04T13:48:00.413Z,24.1
2017-08-04T13:49:02.958Z,24.2
2017-08-04T13:50:05.836Z,24.4
2017-08-04T13:51:08.365Z,24.5
2017-08-04T13:52:12.227Z,24.6
2017-08-04T13:53:15.103Z,24.6
2017-08-04T13:54:17.625Z,24.7
2017-08-04T13:55:20.139Z,24.6
2017-08-04T13:56:23.322Z,24.7
2017-08-04T13:57:25.842Z,24.6
2017-08-04T13:58:28.709Z,24.6
2017-08-04T13:59:31.231Z,24.8
2017-08-04T14:00:34.100Z,24.6
2017-08-04T14:01:36.640Z,24.8